Time;durP1;ratioP1;P1;durP2;ratioP2;P2;SDS_P1;SDS_P2;PMS_P1;PMS_P2;Temp;Humidity;BMP_temperature;BMP_pressure;BME280_temperature;BME280_humidity;BME280_pressure;Samples;Min_cycle;Max_cycle;Signal;HPM_P1;HPM_P2
2021/06/19 00:00:22;;;;;;;;;;;;;;;;;;2073250;28;43877;-70
2021/06/19 00:01:23;;;;;;;;;;;;;;;;;;2072526;28;44058;-68
2021/06/19 00:02:25;;;;;;;;;;;;;;;;;;2087931;28;45679;-70
2021/06/19 00:03:26;;;;;;;;;;;;;;;;;;2088971;28;45024;-70
2021/06/19 00:04:30;;;;;;;;;;;;;;;;;;2072728;28;46755;-69
2021/06/19 00:05:32;;;;;;;;;;;;;;;;;;2065519;28;45192;-69
2021/06/19 00:06:33;;;;;;;;;;;;;;;;;;2064730;28;46581;-70
2021/06/19 00:07:35;;;;;;;;;;;;;;;;;;2073388;28;44082;-70
2021/06/19 00:08:36;;;;;;;;;;;;;;;;;;2072937;28;46330;-70
2021/06/19 00:09:38;;;;;;;;;;;;;;;;;;2072563;28;45964;-69
2021/06/19 00:10:40;;;;;;;;;;;;;;;;;;2088963;28;44824;-69
2021/06/19 00:11:42;;;;;;;;;;;;;;;;;;2080996;28;45910;-70
2021/06/19 00:12:44;;;;;;;;;;;;;;;;;;2072531;28;44649;-70
2021/06/19 00:13:46;;;;;;;;;;;;;;;;;;2072897;28;46247;-70
2021/06/19 00:14:47;;;;;;;;;;;;;;;;;;2072946;28;45753;-70
2021/06/19 00:15:49;;;;;;;;;;;;;;;;;;2073671;28;44677;-69
2021/06/19 00:16:50;;;;;;;;;;;;;;;;;;2089061;28;45832;-69
2021/06/19 00:17:52;;;;;;;;;;;;;;;;;;2088901;28;46036;-69
2021/06/19 00:18:54;;;;;;;;;;;;;;;;;;2089105;28;47412;-69
2021/06/19 00:19:55;;;;;;;;;;;;;;;;;;2088673;28;47094;-69
2021/06/19 00:20:57;;;;;;;;;;;;;;;;;;2073706;28;45898;-69
2021/06/19 00:21:58;;;;;;;;;;;;;;;;;;2073436;28;47512;-70
2021/06/19 00:23:00;;;;;;;;;;;;;;;;;;2073753;28;47032;-69
2021/06/19 00:24:01;;;;;;;;;;;;;;;;;;2072581;28;46275;-69
2021/06/19 00:25:04;;;;;;;;;;;;;;;;;;2081165;28;46129;-69
2021/06/19 00:26:05;;;;;;;;;;;;;;;;;;2080709;28;45903;-68
2021/06/19 00:27:07;;;;;;;;;;;;;;;;;;2073069;28;44194;-69
2021/06/19 00:28:09;;;;;;;;;;;;;;;;;;2089262;28;46326;-69
2021/06/19 00:29:10;;;;;;;;;;;;;;;;;;2097562;28;47142;-70
2021/06/19 00:30:12;;;;;;;;;;;;;;;;;;2081190;28;47241;-69
2021/06/19 00:31:15;;;;;;;;;;;;;;;;;;2072929;28;46876;-69
2021/06/19 00:32:16;;;;;;;;;;;;;;;;;;2088973;28;45369;-70
2021/06/19 00:33:18;;;;;;;;;;;;;;;;;;2080889;28;44277;-69
2021/06/19 00:34:19;;;;;;;;;;;;;;;;;;2072803;28;45709;-70
2021/06/19 00:35:21;;;;;;;;;;;;;;;;;;2073551;28;45375;-69
2021/06/19 00:36:22;;;;;;;;;;;;;;;;;;2072967;28;45607;-69
2021/06/19 00:37:24;;;;;;;;;;;;;;;;;;2081190;28;45622;-69
2021/06/19 00:38:25;;;;;;;;;;;;;;;;;;2080848;28;46412;-70
2021/06/19 00:39:28;;;;;;;;;;;;;;;;;;2072753;28;43010;-70
2021/06/19 00:40:29;;;;;;;;;;;;;;;;;;2073085;28;44053;-70
2021/06/19 00:41:31;;;;;;;;;;;;;;;;;;2080926;28;45401;-70
2021/06/19 00:42:32;;;;;;;;;;;;;;;;;;2081667;28;43067;-70
2021/06/19 00:43:33;;;;;;;;;;;;;;;;;;2081011;28;46415;-70
2021/06/19 00:44:35;;;;;;;;;;;;;;;;;;2072830;28;45242;-70
2021/06/19 00:45:37;;;;;;;;;;;;;;;;;;2089371;28;45223;-70
2021/06/19 00:46:39;;;;;;;;;;;;;;;;;;2096898;28;45357;-70
2021/06/19 00:47:40;;;;;;;;;;;;;;;;;;2097334;28;45418;-70
2021/06/19 00:48:42;;;;;;;;;;;;;;;;;;2088850;28;45230;-69
2021/06/19 00:49:43;;;;;;;;;;;;;;;;;;2089169;28;46555;-70
2021/06/19 00:50:45;;;;;;;;;;;;;;;;;;2097409;28;43389;-70
2021/06/19 00:51:46;;;;;;;;;;;;;;;;;;2097947;28;42936;-69
2021/06/19 00:52:48;;;;;;;;;;;;;;;;;;2097196;28;45139;-70
2021/06/19 00:53:49;;;;;;;;;;;;;;;;;;2080924;28;45479;-70
2021/06/19 00:54:54;;;;;;;;;;;;;;;;;;2073236;28;44214;-70
2021/06/19 00:55:55;;;;;;;;;;;;;;;;;;2081042;28;45408;-70
2021/06/19 00:56:57;;;;;;;;;;;;;;;;;;2081651;28;45440;-70
2021/06/19 00:58:00;;;;;;;;;;;;;;;;;;2081641;28;46845;-70
2021/06/19 00:59:02;;;;;;;;;;;;;;;;;;2097449;28;44017;-70
2021/06/19 01:00:05;;;;;;;;;;;;;;;;;;2097042;28;44043;-70
2021/06/19 01:01:06;;;;;;;;;;;;;;;;;;2080948;28;45473;-70
2021/06/19 01:02:08;;;;;;;;;;;;;;;;;;2088809;28;45344;-70
2021/06/19 01:03:10;;;;;;;;;;;;;;;;;;2097292;28;46698;-70
2021/06/19 01:04:11;;;;;;;;;;;;;;;;;;2089044;28;45340;-69
2021/06/19 01:05:13;;;;;;;;;;;;;;;;;;2081421;28;44127;-70
2021/06/19 01:06:14;;;;;;;;;;;;;;;;;;2080968;28;46479;-69
2021/06/19 01:07:16;;;;;;;;;;;;;;;;;;2072746;28;45628;-69
2021/06/19 01:08:17;;;;;;;;;;;;;;;;;;2072813;28;45531;-70
2021/06/19 01:09:19;;;;;;;;;;;;;;;;;;2072474;28;45264;-69
2021/06/19 01:10:20;;;;;;;;;;;;;;;;;;2089170;28;46614;-69
2021/06/19 01:11:22;;;;;;;;;;;;;;;;;;2097080;28;45471;-70
2021/06/19 01:12:24;;;;;;;;;;;;;;;;;;2081207;28;45587;-69
2021/06/19 01:13:25;;;;;;;;;;;;;;;;;;2097424;28;44529;-69
2021/06/19 01:14:27;;;;;;;;;;;;;;;;;;2097322;28;44577;-69
2021/06/19 01:15:29;;;;;;;;;;;;;;;;;;2088797;28;46183;-69
2021/06/19 01:16:31;;;;;;;;;;;;;;;;;;2080897;28;46685;-70
2021/06/19 01:17:32;;;;;;;;;;;;;;;;;;2072334;28;46588;-70
2021/06/19 01:18:33;;;;;;;;;;;;;;;;;;2080898;28;45005;-70
2021/06/19 01:19:35;;;;;;;;;;;;;;;;;;2097030;28;47063;-70
2021/06/19 01:20:37;;;;;;;;;;;;;;;;;;2096940;28;46263;-71
2021/06/19 01:21:39;;;;;;;;;;;;;;;;;;2097377;28;44609;-68
2021/06/19 01:22:42;;;;;;;;;;;;;;;;;;2088794;28;47352;-68
2021/06/19 01:23:44;;;;;;;;;;;;;;;;;;2072835;28;46147;-68
2021/06/19 01:24:45;;;;;;;;;;;;;;;;;;2072597;28;46029;-68
2021/06/19 01:25:47;;;;;;;;;;;;;;;;;;2080941;28;44504;-68
2021/06/19 01:26:51;;;;;;;;;;;;;;;;;;2097703;28;45423;-69
2021/06/19 01:27:54;;;;;;;;;;;;;;;;;;2095943;28;47141;-68
2021/06/19 01:28:56;;;;;;;;;;;;;;;;;;2081520;28;46009;-69
2021/06/19 01:29:59;;;;;;;;;;;;;;;;;;2081002;28;45917;-70
2021/06/19 01:31:00;;;;;;;;;;;;;;;;;;2080758;28;45841;-69
2021/06/19 01:32:02;;;;;;;;;;;;;;;;;;2080108;28;46057;-69
2021/06/19 01:33:04;;;;;;;;;;;;;;;;;;2081277;28;45969;-70
2021/06/19 01:34:06;;;;;;;;;;;;;;;;;;2080646;28;44679;-70
2021/06/19 01:35:08;;;;;;;;;;;;;;;;;;2080753;28;46334;-70
2021/06/19 01:36:10;;;;;;;;;;;;;;;;;;2080930;28;47127;-70
2021/06/19 01:37:15;;;;;;;;;;;;;;;;;;2072595;28;46579;-70
2021/06/19 01:38:17;;;;;;;;;;;;;;;;;;2089767;28;43878;-70
2021/06/19 01:39:18;;;;;;;;;;;;;;;;;;2088370;28;46800;-69
2021/06/19 01:40:22;;;;;;;;;;;;;;;;;;2072613;28;45339;-69
2021/06/19 01:41:31;;;;;;;;;;;;;;;;;;2072918;28;46415;-69
2021/06/19 01:42:33;;;;;;;;;;;;;;;;;;2080329;28;44010;-70
2021/06/19 01:43:35;;;;;;;;;;;;;;;;;;2080573;28;46474;-69
2021/06/19 01:44:36;;;;;;;;;;;;;;;;;;2088873;28;46757;-70
2021/06/19 01:45:38;;;;;;;;;;;;;;;;;;2097054;28;45354;-70
2021/06/19 01:46:41;;;;;;;;;;;;;;;;;;2080960;28;42803;-70
2021/06/19 01:47:43;;;;;;;;;;;;;;;;;;2080633;28;45390;-70
2021/06/19 01:48:44;;;;;;;;;;;;;;;;;;2072360;28;45379;-70
2021/06/19 01:49:45;;;;;;;;;;;;;;;;;;2080683;28;43975;-70
2021/06/19 01:50:47;;;;;;;;;;;;;;;;;;2081127;28;46401;-70
2021/06/19 01:51:48;;;;;;;;;;;;;;;;;;2096459;28;44043;-70
2021/06/19 01:52:50;;;;;;;;;;;;;;;;;;2088335;28;46399;-70
2021/06/19 01:53:53;;;;;;;;;;;;;;;;;;2080360;28;46327;-70
2021/06/19 01:54:54;;;;;;;;;;;;;;;;;;2080956;28;43956;-70
2021/06/19 01:55:55;;;;;;;;;;;;;;;;;;2097169;28;46554;-70
2021/06/19 01:56:57;;;;;;;;;;;;;;;;;;2088548;28;45383;-70
2021/06/19 01:58:00;;;;;;;;;;;;;;;;;;2089327;28;43184;-70
2021/06/19 01:59:01;;;;;;;;;;;;;;;;;;2088449;28;45580;-70
2021/06/19 02:00:05;;;;;;;;;;;;;;;;;;2088774;28;45483;-70
2021/06/19 02:01:10;;;;;;;;;;;;;;;;;;2087962;28;45461;-69
2021/06/19 02:02:11;;;;;;;;;;;;;;;;;;2089546;28;43744;-70
2021/06/19 02:03:13;;;;;;;;;;;;;;;;;;2088534;28;47218;-70
2021/06/19 02:04:20;;;;;;;;;;;;;;;;;;2088900;28;44462;-70
2021/06/19 02:05:22;;;;;;;;;;;;;;;;;;2087852;28;45440;-70
2021/06/19 02:06:23;;;;;;;;;;;;;;;;;;2088851;28;46972;-70
2021/06/19 02:07:25;;;;;;;;;;;;;;;;;;2096977;28;46518;-70
2021/06/19 02:08:26;;;;;;;;;;;;;;;;;;2097068;28;46750;-70
2021/06/19 02:09:28;;;;;;;;;;;;;;;;;;2096470;28;45490;-70
2021/06/19 02:10:31;;;;;;;;;;;;;;;;;;2097370;28;43258;-70
2021/06/19 02:11:32;;;;;;;;;;;;;;;;;;2096211;28;43924;-70
2021/06/19 02:12:34;;;;;;;;;;;;;;;;;;2080329;28;44038;-71
2021/06/19 02:13:36;;;;;;;;;;;;;;;;;;2089071;28;44452;-71
2021/06/19 02:14:37;;;;;;;;;;;;;;;;;;2096799;28;43729;-71
2021/06/19 02:15:40;;;;;;;;;;;;;;;;;;2080224;28;45398;-71
2021/06/19 02:16:42;;;;;;;;;;;;;;;;;;2080309;28;47072;-71
2021/06/19 02:17:44;;;;;;;;;;;;;;;;;;2080405;28;45659;-71
2021/06/19 02:18:45;;;;;;;;;;;;;;;;;;2080589;28;44389;-71
2021/06/19 02:19:47;;;;;;;;;;;;;;;;;;2080622;28;46478;-71
2021/06/19 02:20:52;;;;;;;;;;;;;;;;;;2072333;28;44592;-71
2021/06/19 02:21:54;;;;;;;;;;;;;;;;;;2089127;28;45929;-71
2021/06/19 02:22:56;;;;;;;;;;;;;;;;;;2088264;28;46315;-71
2021/06/19 02:23:57;;;;;;;;;;;;;;;;;;2072033;28;43182;-71
2021/06/19 02:24:59;;;;;;;;;;;;;;;;;;2072204;28;44517;-71
2021/06/19 02:26:00;;;;;;;;;;;;;;;;;;2079996;28;44598;-71
2021/06/19 02:27:08;;;;;;;;;;;;;;;;;;2080516;28;47340;-71
2021/06/19 02:28:10;;;;;;;;;;;;;;;;;;2073151;28;46203;-71
2021/06/19 02:29:11;;;;;;;;;;;;;;;;;;2089366;28;43960;-71
2021/06/19 02:30:13;;;;;;;;;;;;;;;;;;2088185;28;46409;-71
2021/06/19 02:31:15;;;;;;;;;;;;;;;;;;2072161;28;47378;-70
2021/06/19 02:32:17;;;;;;;;;;;;;;;;;;2088799;28;46093;-70
2021/06/19 02:33:18;;;;;;;;;;;;;;;;;;2096738;28;44680;-71
2021/06/19 02:34:20;;;;;;;;;;;;;;;;;;2096998;28;46457;-70
2021/06/19 02:35:23;;;;;;;;;;;;;;;;;;2096818;28;47449;-70
2021/06/19 02:36:25;;;;;;;;;;;;;;;;;;2080181;28;47031;-70
2021/06/19 02:37:26;;;;;;;;;;;;;;;;;;2072685;28;43571;-70
2021/06/19 02:38:27;;;;;;;;;;;;;;;;;;2072103;28;46059;-70
2021/06/19 02:39:29;;;;;;;;;;;;;;;;;;2072025;28;45827;-70
2021/06/19 02:40:30;;;;;;;;;;;;;;;;;;2088768;28;44559;-69
2021/06/19 02:41:32;;;;;;;;;;;;;;;;;;2096379;28;45810;-69
2021/06/19 02:42:33;;;;;;;;;;;;;;;;;;2080740;28;45827;-69
2021/06/19 02:43:35;;;;;;;;;;;;;;;;;;2080363;28;44084;-69
2021/06/19 02:44:36;;;;;;;;;;;;;;;;;;2081132;28;43852;-69
2021/06/19 02:45:38;;;;;;;;;;;;;;;;;;2096458;28;45327;-69
2021/06/19 02:46:40;;;;;;;;;;;;;;;;;;2096639;28;44062;-69
2021/06/19 02:47:43;;;;;;;;;;;;;;;;;;2080303;28;43528;-69
2021/06/19 02:48:44;;;;;;;;;;;;;;;;;;2072588;28;46158;-69
2021/06/19 02:49:46;;;;;;;;;;;;;;;;;;2071968;28;45502;-69
2021/06/19 02:50:47;;;;;;;;;;;;;;;;;;2072236;28;45879;-69
2021/06/19 02:51:48;;;;;;;;;;;;;;;;;;2080208;28;46526;-69
2021/06/19 02:52:50;;;;;;;;;;;;;;;;;;2080757;28;43357;-69
2021/06/19 02:53:51;;;;;;;;;;;;;;;;;;2080509;28;45388;-69
2021/06/19 02:54:53;;;;;;;;;;;;;;;;;;2096966;28;46671;-70
2021/06/19 02:55:55;;;;;;;;;;;;;;;;;;2096338;28;45330;-68
2021/06/19 02:56:56;;;;;;;;;;;;;;;;;;2080947;28;45538;-69
2021/06/19 02:57:58;;;;;;;;;;;;;;;;;;2096705;28;45336;-69
2021/06/19 02:58:59;;;;;;;;;;;;;;;;;;2088433;28;45307;-69
2021/06/19 03:00:02;;;;;;;;;;;;;;;;;;2071862;28;45666;-69
2021/06/19 03:01:08;;;;;;;;;;;;;;;;;;2079942;28;46766;-69
2021/06/19 03:02:09;;;;;;;;;;;;;;;;;;2080638;28;43857;-69
2021/06/19 03:03:11;;;;;;;;;;;;;;;;;;2096773;28;46808;-69
2021/06/19 03:04:15;;;;;;;;;;;;;;;;;;2089506;28;46395;-69
2021/06/19 03:05:17;;;;;;;;;;;;;;;;;;2090501;28;45488;-69
2021/06/19 03:06:19;;;;;;;;;;;;;;;;;;2098009;28;46496;-69
2021/06/19 03:07:20;;;;;;;;;;;;;;;;;;2090333;28;43153;-69
2021/06/19 03:08:22;;;;;;;;;;;;;;;;;;2081541;28;45322;-69
2021/06/19 03:09:23;;;;;;;;;;;;;;;;;;2073433;28;45486;-69
2021/06/19 03:10:27;;;;;;;;;;;;;;;;;;2089959;28;45696;-69
2021/06/19 03:11:28;;;;;;;;;;;;;;;;;;2089163;28;46534;-69
2021/06/19 03:12:30;;;;;;;;;;;;;;;;;;2073167;28;44014;-69
2021/06/19 03:13:31;;;;;;;;;;;;;;;;;;2065438;28;47253;-69
2021/06/19 03:14:33;;;;;;;;;;;;;;;;;;2081757;28;46704;-69
2021/06/19 03:15:34;;;;;;;;;;;;;;;;;;2081121;28;47175;-69
2021/06/19 03:16:36;;;;;;;;;;;;;;;;;;2073370;28;46521;-69
2021/06/19 03:17:38;;;;;;;;;;;;;;;;;;2074068;28;46954;-69
2021/06/19 03:18:39;;;;;;;;;;;;;;;;;;2073824;28;46628;-69
2021/06/19 03:19:40;;;;;;;;;;;;;;;;;;2089807;28;44338;-69
2021/06/19 03:20:42;;;;;;;;;;;;;;;;;;2097949;28;45831;-69
2021/06/19 03:21:45;;;;;;;;;;;;;;;;;;2097976;28;47499;-69
2021/06/19 03:22:54;;;;;;;;;;;;;;;;;;2088974;28;45424;-67
2021/06/19 03:23:55;;;;;;;;;;;;;;;;;;2081734;28;46740;-67
2021/06/19 03:24:57;;;;;;;;;;;;;;;;;;2082247;28;44191;-68
2021/06/19 03:25:58;;;;;;;;;;;;;;;;;;2082608;28;45464;-68
2021/06/19 03:26:59;;;;;;;;;;;;;;;;;;2098044;28;45948;-68
2021/06/19 03:28:03;;;;;;;;;;;;;;;;;;2089697;28;47024;-68
2021/06/19 03:29:05;;;;;;;;;;;;;;;;;;2073601;28;44956;-68
2021/06/19 03:30:07;;;;;;;;;;;;;;;;;;2073261;28;45085;-68
2021/06/19 03:31:09;;;;;;;;;;;;;;;;;;2081188;28;45969;-69
2021/06/19 03:32:10;;;;;;;;;;;;;;;;;;2081271;28;46885;-70
2021/06/19 03:33:12;;;;;;;;;;;;;;;;;;2081300;28;46201;-68
2021/06/19 03:34:14;;;;;;;;;;;;;;;;;;2082507;28;44707;-68
2021/06/19 03:35:16;;;;;;;;;;;;;;;;;;2081320;28;44597;-69
2021/06/19 03:36:17;;;;;;;;;;;;;;;;;;2073415;28;47100;-68
2021/06/19 03:37:19;;;;;;;;;;;;;;;;;;2090010;28;44695;-68
2021/06/19 03:38:20;;;;;;;;;;;;;;;;;;2097822;28;45975;-68
2021/06/19 03:39:22;;;;;;;;;;;;;;;;;;2081898;28;46325;-68
2021/06/19 03:40:25;;;;;;;;;;;;;;;;;;2098065;28;47088;-68
2021/06/19 03:41:26;;;;;;;;;;;;;;;;;;2097314;28;47032;-68
2021/06/19 03:42:28;;;;;;;;;;;;;;;;;;2089483;28;45937;-68
2021/06/19 03:43:29;;;;;;;;;;;;;;;;;;2081821;28;45943;-68
2021/06/19 03:44:30;;;;;;;;;;;;;;;;;;2098105;28;45801;-68
2021/06/19 03:45:35;;;;;;;;;;;;;;;;;;2097157;28;47104;-68
2021/06/19 03:46:38;;;;;;;;;;;;;;;;;;2082149;28;46019;-68
2021/06/19 03:47:40;;;;;;;;;;;;;;;;;;2081913;28;48546;-69
2021/06/19 03:48:41;;;;;;;;;;;;;;;;;;2098389;28;45915;-69
2021/06/19 03:49:42;;;;;;;;;;;;;;;;;;2097478;28;45346;-69
2021/06/19 03:50:44;;;;;;;;;;;;;;;;;;2097928;28;45337;-69
2021/06/19 03:51:46;;;;;;;;;;;;;;;;;;2097552;28;46788;-69
2021/06/19 03:52:47;;;;;;;;;;;;;;;;;;2080872;28;45329;-69
2021/06/19 03:53:49;;;;;;;;;;;;;;;;;;2081247;28;43898;-69
2021/06/19 03:54:50;;;;;;;;;;;;;;;;;;2097987;28;45393;-69
2021/06/19 03:55:52;;;;;;;;;;;;;;;;;;2089437;28;46251;-70
2021/06/19 03:56:53;;;;;;;;;;;;;;;;;;2081378;28;45219;-69
2021/06/19 03:57:56;;;;;;;;;;;;;;;;;;2081168;28;45557;-69
2021/06/19 03:58:57;;;;;;;;;;;;;;;;;;2073415;28;45540;-68
2021/06/19 03:59:59;;;;;;;;;;;;;;;;;;2072390;28;45253;-70
2021/06/19 04:01:00;;;;;;;;;;;;;;;;;;2073333;28;42697;-70
2021/06/19 04:02:02;;;;;;;;;;;;;;;;;;2072772;28;45662;-70
2021/06/19 04:03:04;;;;;;;;;;;;;;;;;;2081368;28;46509;-70
2021/06/19 04:04:06;;;;;;;;;;;;;;;;;;2097576;28;43967;-70
2021/06/19 04:05:08;;;;;;;;;;;;;;;;;;2089696;28;44005;-70
2021/06/19 04:06:09;;;;;;;;;;;;;;;;;;2073176;28;46650;-70
2021/06/19 04:07:11;;;;;;;;;;;;;;;;;;2072964;28;46768;-70
2021/06/19 04:08:13;;;;;;;;;;;;;;;;;;2073310;28;45356;-70
2021/06/19 04:09:14;;;;;;;;;;;;;;;;;;2089837;28;41898;-69
2021/06/19 04:10:16;;;;;;;;;;;;;;;;;;2097825;28;45232;-70
2021/06/19 04:11:18;;;;;;;;;;;;;;;;;;2081248;28;45790;-69
2021/06/19 04:12:23;;;;;;;;;;;;;;;;;;2072790;28;45730;-70
2021/06/19 04:13:24;;;;;;;;;;;;;;;;;;2081342;28;46690;-70
2021/06/19 04:14:26;;;;;;;;;;;;;;;;;;2080435;28;46613;-70
2021/06/19 04:15:27;;;;;;;;;;;;;;;;;;2073058;28;46850;-69
2021/06/19 04:16:29;;;;;;;;;;;;;;;;;;2073110;28;46723;-69
2021/06/19 04:17:30;;;;;;;;;;;;;;;;;;2089633;28;46920;-69
2021/06/19 04:18:32;;;;;;;;;;;;;;;;;;2097220;28;46742;-69
2021/06/19 04:19:33;;;;;;;;;;;;;;;;;;2097607;28;46659;-70
2021/06/19 04:20:35;;;;;;;;;;;;;;;;;;2089303;28;45520;-69
2021/06/19 04:21:36;;;;;;;;;;;;;;;;;;2073249;28;46790;-69
2021/06/19 04:22:38;;;;;;;;;;;;;;;;;;2072518;28;46616;-69
2021/06/19 04:23:39;;;;;;;;;;;;;;;;;;2073090;28;45524;-70
2021/06/19 04:24:41;;;;;;;;;;;;;;;;;;2081165;28;44481;-69
2021/06/19 04:25:42;;;;;;;;;;;;;;;;;;2081795;28;45745;-69
2021/06/19 04:26:44;;;;;;;;;;;;;;;;;;2081568;28;44016;-69
2021/06/19 04:27:50;;;;;;;;;;;;;;;;;;2089457;28;46813;-69
2021/06/19 04:28:52;;;;;;;;;;;;;;;;;;2096588;28;43911;-69
2021/06/19 04:29:54;;;;;;;;;;;;;;;;;;2080568;28;46503;-69
2021/06/19 04:30:59;;;;;;;;;;;;;;;;;;2089512;28;46514;-69
2021/06/19 04:32:07;;;;;;;;;;;;;;;;;;2088182;28;43246;-69
2021/06/19 04:33:09;;;;;;;;;;;;;;;;;;2073714;28;44543;-69
2021/06/19 04:34:10;;;;;;;;;;;;;;;;;;2081103;28;45946;-71
2021/06/19 04:35:13;;;;;;;;;;;;;;;;;;2081651;28;46332;-70
2021/06/19 04:36:16;;;;;;;;;;;;;;;;;;2081723;28;45948;-69
2021/06/19 04:37:26;;;;;;;;;;;;;;;;;;2097256;28;45812;-69
2021/06/19 04:38:27;;;;;;;;;;;;;;;;;;2095324;28;45858;-69
2021/06/19 04:39:29;;;;;;;;;;;;;;;;;;2081393;28;47025;-70
2021/06/19 04:40:39;;;;;;;;;;;;;;;;;;2081652;28;47039;-70
2021/06/19 04:42:03;;;;;;;;;;;;;;;;;;2080813;28;45986;-70
2021/06/19 04:43:07;;;;;;;;;;;;;;;;;;2081125;28;47136;-69
2021/06/19 04:45:18;;;;;;;;;;;;;;;;;;2081660;28;47350;-69
2021/06/19 04:46:20;;;;;;;;;;;;;;;;;;2080930;28;45042;-68
2021/06/19 04:47:24;;;;;;;;;;;;;;;;;;2081059;28;44656;-68
2021/06/19 04:48:26;;;;;;;;;;;;;;;;;;2080949;28;45044;-68
2021/06/19 04:49:27;;;;;;;;;;;;;;;;;;2080909;28;44711;-68
2021/06/19 04:50:30;;;;;;;;;;;;;;;;;;2097362;28;47474;-70
2021/06/19 04:51:32;;;;;;;;;;;;;;;;;;2088500;28;47127;-70
2021/06/19 04:52:35;;;;;;;;;;;;;;;;;;2080736;28;45842;-70
2021/06/19 04:53:36;;;;;;;;;;;;;;;;;;2081971;28;43305;-70
2021/06/19 04:54:38;;;;;;;;;;;;;;;;;;2097423;28;45822;-70
2021/06/19 04:55:39;;;;;;;;;;;;;;;;;;2089325;28;44562;-69
2021/06/19 04:56:41;;;;;;;;;;;;;;;;;;2089214;28;45335;-70
2021/06/19 04:57:44;;;;;;;;;;;;;;;;;;2089065;28;44222;-69
2021/06/19 04:58:45;;;;;;;;;;;;;;;;;;2072795;28;46424;-68
2021/06/19 04:59:47;;;;;;;;;;;;;;;;;;2080651;28;45401;-70
2021/06/19 05:00:48;;;;;;;;;;;;;;;;;;2080910;28;45177;-69
2021/06/19 05:01:49;;;;;;;;;;;;;;;;;;2072913;28;43993;-70
2021/06/19 05:02:51;;;;;;;;;;;;;;;;;;2072362;28;45823;-69
2021/06/19 05:03:52;;;;;;;;;;;;;;;;;;2080996;28;46311;-69
2021/06/19 05:04:54;;;;;;;;;;;;;;;;;;2081476;28;45444;-71
2021/06/19 05:05:57;;;;;;;;;;;;;;;;;;2097365;28;46638;-70
2021/06/19 05:06:59;;;;;;;;;;;;;;;;;;2096382;28;46730;-70
2021/06/19 05:08:00;;;;;;;;;;;;;;;;;;2097390;28;46594;-71
2021/06/19 05:09:05;;;;;;;;;;;;;;;;;;2096971;28;44852;-70
2021/06/19 05:10:07;;;;;;;;;;;;;;;;;;2081173;28;48502;-70
2021/06/19 05:11:09;;;;;;;;;;;;;;;;;;2081254;28;45568;-70
2021/06/19 05:12:11;;;;;;;;;;;;;;;;;;2097205;28;45387;-69
2021/06/19 05:13:12;;;;;;;;;;;;;;;;;;2097167;28;45504;-70
2021/06/19 05:14:13;;;;;;;;;;;;;;;;;;2097087;28;45340;-70
2021/06/19 05:15:17;;;;;;;;;;;;;;;;;;2096934;28;45230;-70
2021/06/19 05:16:19;;;;;;;;;;;;;;;;;;2081506;28;45872;-70
2021/06/19 05:17:20;;;;;;;;;;;;;;;;;;2081699;28;45724;-70
2021/06/19 05:18:22;;;;;;;;;;;;;;;;;;2097436;28;44235;-70
2021/06/19 05:19:23;;;;;;;;;;;;;;;;;;2096810;28;43367;-70
2021/06/19 05:20:27;;;;;;;;;;;;;;;;;;2089016;28;45333;-70
2021/06/19 05:21:28;;;;;;;;;;;;;;;;;;2097002;28;46648;-70
2021/06/19 05:22:30;;;;;;;;;;;;;;;;;;2096964;28;45456;-70
2021/06/19 05:23:31;;;;;;;;;;;;;;;;;;2081050;28;45489;-70
2021/06/19 05:24:34;;;;;;;;;;;;;;;;;;2080871;28;45717;-70
2021/06/19 05:25:37;;;;;;;;;;;;;;;;;;2072700;28;44019;-70
2021/06/19 05:26:39;;;;;;;;;;;;;;;;;;2069884;28;46959;-70
2021/06/19 05:27:41;;;;;;;;;;;;;;;;;;2080383;28;46881;-69
2021/06/19 05:28:42;;;;;;;;;;;;;;;;;;2080494;28;44069;-69
2021/06/19 05:29:44;;;;;;;;;;;;;;;;;;2088661;28;45421;-69
2021/06/19 05:30:45;;;;;;;;;;;;;;;;;;2097123;28;45381;-70
2021/06/19 05:31:47;;;;;;;;;;;;;;;;;;2081163;28;46568;-69
2021/06/19 05:32:48;;;;;;;;;;;;;;;;;;2080360;28;46957;-70
2021/06/19 05:33:50;;;;;;;;;;;;;;;;;;2080357;28;43082;-70
2021/06/19 05:34:51;;;;;;;;;;;;;;;;;;2081314;28;46674;-70
2021/06/19 05:35:53;;;;;;;;;;;;;;;;;;2080776;28;46918;-70
2021/06/19 05:36:54;;;;;;;;;;;;;;;;;;2080706;28;44024;-70
2021/06/19 05:37:56;;;;;;;;;;;;;;;;;;2072526;28;44304;-70
2021/06/19 05:38:57;;;;;;;;;;;;;;;;;;2081443;28;45380;-70
2021/06/19 05:39:58;;;;;;;;;;;;;;;;;;2080992;28;47374;-70
2021/06/19 05:41:00;;;;;;;;;;;;;;;;;;2080783;28;45525;-70
2021/06/19 05:42:01;;;;;;;;;;;;;;;;;;2097029;28;44522;-70
2021/06/19 05:43:03;;;;;;;;;;;;;;;;;;2088675;28;45946;-70
2021/06/19 05:44:08;;;;;;;;;;;;;;;;;;2080279;28;47027;-70
2021/06/19 05:45:10;;;;;;;;;;;;;;;;;;2097142;28;45085;-71
2021/06/19 05:46:11;;;;;;;;;;;;;;;;;;2088303;28;44664;-70
2021/06/19 05:47:13;;;;;;;;;;;;;;;;;;2077701;28;46001;-70
2021/06/19 05:48:15;;;;;;;;;;;;;;;;;;2097225;28;44844;-69
2021/06/19 05:49:16;;;;;;;;;;;;;;;;;;2096704;28;45923;-69
2021/06/19 05:50:18;;;;;;;;;;;;;;;;;;2080978;28;45984;-69
2021/06/19 05:51:19;;;;;;;;;;;;;;;;;;2096610;28;44961;-69
2021/06/19 05:52:22;;;;;;;;;;;;;;;;;;2096463;28;44758;-69
2021/06/19 05:53:25;;;;;;;;;;;;;;;;;;2097189;28;47066;-69
2021/06/19 05:54:26;;;;;;;;;;;;;;;;;;2096229;28;47397;-69
2021/06/19 05:55:28;;;;;;;;;;;;;;;;;;2081070;28;47424;-69
2021/06/19 05:56:30;;;;;;;;;;;;;;;;;;2080602;28;47228;-70
2021/06/19 05:57:31;;;;;;;;;;;;;;;;;;2080562;28;45028;-70
2021/06/19 05:58:32;;;;;;;;;;;;;;;;;;2096523;28;45999;-70
2021/06/19 05:59:35;;;;;;;;;;;;;;;;;;2096667;28;47267;-70
2021/06/19 06:00:37;;;;;;;;;;;;;;;;;;2097055;28;46262;-70
2021/06/19 06:01:38;;;;;;;;;;;;;;;;;;2096698;28;46377;-70
2021/06/19 06:02:41;;;;;;;;;;;;;;;;;;2096737;28;45626;-70
2021/06/19 06:03:42;;;;;;;;;;;;;;;;;;2096790;28;44152;-70
2021/06/19 06:04:44;;;;;;;;;;;;;;;;;;2088950;28;43695;-70
2021/06/19 06:05:45;;;;;;;;;;;;;;;;;;2080219;28;44116;-70
2021/06/19 06:06:48;;;;;;;;;;;;;;;;;;2080631;28;46713;-70
2021/06/19 06:07:49;;;;;;;;;;;;;;;;;;2072508;28;46652;-70
2021/06/19 06:08:51;;;;;;;;;;;;;;;;;;2072700;28;46422;-69
2021/06/19 06:09:52;;;;;;;;;;;;;;;;;;2073029;28;44150;-70
2021/06/19 06:10:54;;;;;;;;;;;;;;;;;;2089728;28;46358;-70
2021/06/19 06:11:55;;;;;;;;;;;;;;;;;;2097884;28;41819;-69
2021/06/19 06:12:57;;;;;;;;;;;;;;;;;;2097143;28;45356;-70
2021/06/19 06:13:58;;;;;;;;;;;;;;;;;;2089567;28;45311;-70
2021/06/19 06:15:00;;;;;;;;;;;;;;;;;;2073258;28;45521;-69
2021/06/19 06:16:02;;;;;;;;;;;;;;;;;;2089537;28;45884;-70
2021/06/19 06:17:03;;;;;;;;;;;;;;;;;;2089612;28;45361;-70
2021/06/19 06:18:05;;;;;;;;;;;;;;;;;;2081888;28;46015;-70
2021/06/19 06:19:07;;;;;;;;;;;;;;;;;;2098392;28;45566;-69
2021/06/19 06:20:09;;;;;;;;;;;;;;;;;;2097569;28;44032;-69
2021/06/19 06:21:10;;;;;;;;;;;;;;;;;;2082167;28;45210;-70
2021/06/19 06:22:11;;;;;;;;;;;;;;;;;;2097321;28;45444;-70
2021/06/19 06:23:13;;;;;;;;;;;;;;;;;;2089470;28;46886;-70
2021/06/19 06:24:14;;;;;;;;;;;;;;;;;;2088946;28;45690;-70
2021/06/19 06:25:16;;;;;;;;;;;;;;;;;;2097517;28;44084;-70
2021/06/19 06:26:17;;;;;;;;;;;;;;;;;;2097462;28;46736;-71
2021/06/19 06:27:19;;;;;;;;;;;;;;;;;;2097160;28;45252;-71
2021/06/19 06:28:20;;;;;;;;;;;;;;;;;;2088783;28;44223;-70
2021/06/19 06:29:22;;;;;;;;;;;;;;;;;;2081167;28;44961;-70
2021/06/19 06:30:23;;;;;;;;;;;;;;;;;;2080549;28;45248;-70
2021/06/19 06:31:25;;;;;;;;;;;;;;;;;;2081365;28;46604;-71
2021/06/19 06:32:29;;;;;;;;;;;;;;;;;;2089160;28;45886;-71
2021/06/19 06:33:30;;;;;;;;;;;;;;;;;;2088171;28;44232;-71
2021/06/19 06:34:32;;;;;;;;;;;;;;;;;;2080085;28;47266;-71
2021/06/19 06:35:33;;;;;;;;;;;;;;;;;;2072015;28;43982;-71
2021/06/19 06:36:35;;;;;;;;;;;;;;;;;;2080450;28;45779;-70
2021/06/19 06:37:40;;;;;;;;;;;;;;;;;;2080145;28;46672;-70
2021/06/19 06:38:41;;;;;;;;;;;;;;;;;;2079648;28;45422;-70
2021/06/19 06:39:43;;;;;;;;;;;;;;;;;;2081183;28;45759;-70
2021/06/19 06:40:44;;;;;;;;;;;;;;;;;;2080271;28;45821;-70
2021/06/19 06:41:46;;;;;;;;;;;;;;;;;;2088826;28;46733;-70
2021/06/19 06:42:47;;;;;;;;;;;;;;;;;;2104632;28;43223;-70
2021/06/19 06:43:48;;;;;;;;;;;;;;;;;;2096639;28;45722;-71
2021/06/19 06:44:50;;;;;;;;;;;;;;;;;;2080464;28;45587;-71
2021/06/19 06:45:51;;;;;;;;;;;;;;;;;;2080041;28;47170;-71
2021/06/19 06:46:53;;;;;;;;;;;;;;;;;;2080556;28;45925;-73
2021/06/19 06:47:54;;;;;;;;;;;;;;;;;;2080264;28;45814;-72
2021/06/19 06:48:56;;;;;;;;;;;;;;;;;;2080383;28;45907;-71
2021/06/19 06:49:57;;;;;;;;;;;;;;;;;;2071577;28;46888;-71
2021/06/19 06:50:59;;;;;;;;;;;;;;;;;;2080108;28;47110;-71
2021/06/19 06:52:00;;;;;;;;;;;;;;;;;;2080000;28;43743;-71
2021/06/19 06:53:02;;;;;;;;;;;;;;;;;;2079986;28;47381;-71
2021/06/19 06:54:04;;;;;;;;;;;;;;;;;;2088047;28;47470;-71
2021/06/19 06:55:07;;;;;;;;;;;;;;;;;;2072011;28;46371;-71
2021/06/19 06:56:09;;;;;;;;;;;;;;;;;;2072126;28;46428;-71
2021/06/19 06:57:10;;;;;;;;;;;;;;;;;;2088272;28;47087;-71
2021/06/19 06:58:11;;;;;;;;;;;;;;;;;;2088250;28;46126;-71
2021/06/19 06:59:13;;;;;;;;;;;;;;;;;;2072123;28;47333;-71
2021/06/19 07:00:15;;;;;;;;;;;;;;;;;;2072035;28;46936;-71
2021/06/19 07:01:17;;;;;;;;;;;;;;;;;;2072266;28;44916;-71
2021/06/19 07:02:19;;;;;;;;;;;;;;;;;;2071808;28;45857;-71
2021/06/19 07:03:20;;;;;;;;;;;;;;;;;;2079983;28;46198;-74
2021/06/19 07:04:22;;;;;;;;;;;;;;;;;;2080145;28;45248;-72